sensor_id;sensor_type;location;lat;lon;timestamp;P1;durP1;ratioP1;P2;durP2;ratioP2
74551;SDS011;63025;55.472;38.432;2022-12-07T00:01:06;11.98;;;5.85;;
74551;SDS011;63025;55.472;38.432;2022-12-07T00:03:43;13.55;;;5.55;;
74551;SDS011;63025;55.472;38.432;2022-12-07T00:06:11;12.90;;;6.03;;
74551;SDS011;63025;55.472;38.432;2022-12-07T00:08:38;13.13;;;5.97;;
74551;SDS011;63025;55.472;38.432;2022-12-07T00:11:05;13.05;;;6.22;;
74551;SDS011;63025;55.472;38.432;2022-12-07T00:13:39;13.25;;;6.60;;
74551;SDS011;63025;55.472;38.432;2022-12-07T00:16:26;14.23;;;6.53;;
74551;SDS011;63025;55.472;38.432;2022-12-07T00:18:54;15.80;;;6.72;;
74551;SDS011;63025;55.472;38.432;2022-12-07T00:21:21;15.07;;;7.20;;
74551;SDS011;63025;55.472;38.432;2022-12-07T00:23:49;13.90;;;6.95;;
74551;SDS011;63025;55.472;38.432;2022-12-07T00:26:18;11.95;;;6.68;;
74551;SDS011;63025;55.472;38.432;2022-12-07T00:28:49;17.05;;;8.20;;
74551;SDS011;63025;55.472;38.432;2022-12-07T00:31:20;13.15;;;7.60;;
74551;SDS011;63025;55.472;38.432;2022-12-07T00:33:47;13.55;;;7.43;;
74551;SDS011;63025;55.472;38.432;2022-12-07T00:36:15;13.48;;;6.70;;
74551;SDS011;63025;55.472;38.432;2022-12-07T00:38:42;11.52;;;6.53;;
74551;SDS011;63025;55.472;38.432;2022-12-07T00:41:13;15.65;;;7.15;;
74551;SDS011;63025;55.472;38.432;2022-12-07T00:43:40;14.35;;;6.68;;
74551;SDS011;63025;55.472;38.432;2022-12-07T00:46:07;17.15;;;7.40;;
74551;SDS011;63025;55.472;38.432;2022-12-07T00:48:34;15.82;;;7.70;;
74551;SDS011;63025;55.472;38.432;2022-12-07T00:51:00;17.77;;;7.82;;
74551;SDS011;63025;55.472;38.432;2022-12-07T00:53:26;16.48;;;7.90;;
74551;SDS011;63025;55.472;38.432;2022-12-07T00:55:52;14.82;;;7.97;;
74551;SDS011;63025;55.472;38.432;2022-12-07T00:58:18;13.75;;;7.40;;
74551;SDS011;63025;55.472;38.432;2022-12-07T01:00:45;19.10;;;7.93;;
74551;SDS011;63025;55.472;38.432;2022-12-07T01:03:12;16.48;;;8.27;;
74551;SDS011;63025;55.472;38.432;2022-12-07T01:05:38;16.80;;;8.02;;
74551;SDS011;63025;55.472;38.432;2022-12-07T01:08:04;17.33;;;8.45;;
74551;SDS011;63025;55.472;38.432;2022-12-07T01:10:32;19.00;;;9.00;;
74551;SDS011;63025;55.472;38.432;2022-12-07T01:12:58;19.60;;;9.40;;
74551;SDS011;63025;55.472;38.432;2022-12-07T01:15:25;24.60;;;10.32;;
74551;SDS011;63025;55.472;38.432;2022-12-07T01:17:51;20.88;;;9.43;;
74551;SDS011;63025;55.472;38.432;2022-12-07T01:20:17;22.60;;;9.50;;
74551;SDS011;63025;55.472;38.432;2022-12-07T01:22:43;17.83;;;9.23;;
74551;SDS011;63025;55.472;38.432;2022-12-07T01:25:10;19.48;;;8.48;;
74551;SDS011;63025;55.472;38.432;2022-12-07T01:27:37;17.73;;;8.65;;
74551;SDS011;63025;55.472;38.432;2022-12-07T01:30:04;16.10;;;8.48;;
74551;SDS011;63025;55.472;38.432;2022-12-07T01:32:32;17.90;;;7.85;;
74551;SDS011;63025;55.472;38.432;2022-12-07T01:34:58;18.63;;;8.00;;
74551;SDS011;63025;55.472;38.432;2022-12-07T01:37:24;14.88;;;7.68;;
74551;SDS011;63025;55.472;38.432;2022-12-07T01:39:50;15.48;;;8.23;;
74551;SDS011;63025;55.472;38.432;2022-12-07T01:42:17;19.83;;;7.88;;
74551;SDS011;63025;55.472;38.432;2022-12-07T01:47:48;14.13;;;7.93;;
74551;SDS011;63025;55.472;38.432;2022-12-07T01:50:19;16.50;;;7.95;;
74551;SDS011;63025;55.472;38.432;2022-12-07T01:52:47;12.45;;;6.68;;
74551;SDS011;63025;55.472;38.432;2022-12-07T01:55:15;16.77;;;8.20;;
74551;SDS011;63025;55.472;38.432;2022-12-07T01:57:43;17.83;;;7.32;;
74551;SDS011;63025;55.472;38.432;2022-12-07T02:00:13;16.17;;;7.93;;
74551;SDS011;63025;55.472;38.432;2022-12-07T02:02:51;14.55;;;7.85;;
74551;SDS011;63025;55.472;38.432;2022-12-07T02:05:20;16.00;;;7.20;;
74551;SDS011;63025;55.472;38.432;2022-12-07T02:07:48;15.65;;;8.13;;
74551;SDS011;63025;55.472;38.432;2022-12-07T02:10:16;13.80;;;7.20;;
74551;SDS011;63025;55.472;38.432;2022-12-07T02:12:44;13.75;;;7.38;;
74551;SDS011;63025;55.472;38.432;2022-12-07T02:15:58;13.93;;;6.97;;
74551;SDS011;63025;55.472;38.432;2022-12-07T02:24:14;15.90;;;7.65;;
74551;SDS011;63025;55.472;38.432;2022-12-07T02:35:15;14.13;;;6.60;;
74551;SDS011;63025;55.472;38.432;2022-12-07T02:40:22;18.85;;;7.30;;
74551;SDS011;63025;55.472;38.432;2022-12-07T02:43:03;16.48;;;6.60;;
74551;SDS011;63025;55.472;38.432;2022-12-07T02:45:34;14.38;;;6.95;;
74551;SDS011;63025;55.472;38.432;2022-12-07T02:48:03;13.63;;;7.35;;
74551;SDS011;63025;55.472;38.432;2022-12-07T02:50:31;13.93;;;6.60;;
74551;SDS011;63025;55.472;38.432;2022-12-07T02:52:57;14.23;;;6.22;;
74551;SDS011;63025;55.472;38.432;2022-12-07T02:55:25;13.55;;;6.07;;
74551;SDS011;63025;55.472;38.432;2022-12-07T02:58:02;16.20;;;6.00;;
74551;SDS011;63025;55.472;38.432;2022-12-07T03:00:54;13.60;;;6.07;;
74551;SDS011;63025;55.472;38.432;2022-12-07T03:03:42;12.02;;;5.90;;
74551;SDS011;63025;55.472;38.432;2022-12-07T03:06:20;12.23;;;5.78;;
74551;SDS011;63025;55.472;38.432;2022-12-07T03:12:01;13.77;;;5.97;;
74551;SDS011;63025;55.472;38.432;2022-12-07T03:14:35;14.57;;;6.53;;
74551;SDS011;63025;55.472;38.432;2022-12-07T03:17:14;12.65;;;6.43;;
74551;SDS011;63025;55.472;38.432;2022-12-07T03:19:44;14.05;;;6.03;;
74551;SDS011;63025;55.472;38.432;2022-12-07T03:22:12;13.05;;;6.70;;
74551;SDS011;63025;55.472;38.432;2022-12-07T03:24:47;13.27;;;6.38;;
74551;SDS011;63025;55.472;38.432;2022-12-07T03:27:21;13.07;;;6.28;;
74551;SDS011;63025;55.472;38.432;2022-12-07T03:29:50;15.38;;;5.82;;
74551;SDS011;63025;55.472;38.432;2022-12-07T03:33:06;12.23;;;6.03;;
74551;SDS011;63025;55.472;38.432;2022-12-07T03:35:27;12.90;;;6.20;;
74551;SDS011;63025;55.472;38.432;2022-12-07T03:38:16;11.95;;;5.72;;
74551;SDS011;63025;55.472;38.432;2022-12-07T03:43:46;12.90;;;5.25;;
74551;SDS011;63025;55.472;38.432;2022-12-07T03:48:55;13.00;;;5.93;;
74551;SDS011;63025;55.472;38.432;2022-12-07T03:52:08;12.63;;;5.88;;
74551;SDS011;63025;55.472;38.432;2022-12-07T03:54:18;12.07;;;5.50;;
74551;SDS011;63025;55.472;38.432;2022-12-07T03:56:48;11.93;;;5.65;;
74551;SDS011;63025;55.472;38.432;2022-12-07T03:59:15;12.75;;;6.25;;
74551;SDS011;63025;55.472;38.432;2022-12-07T04:01:43;14.13;;;5.70;;
74551;SDS011;63025;55.472;38.432;2022-12-07T04:04:10;14.40;;;6.57;;
74551;SDS011;63025;55.472;38.432;2022-12-07T04:06:36;13.02;;;6.60;;
74551;SDS011;63025;55.472;38.432;2022-12-07T04:09:02;15.70;;;6.97;;
74551;SDS011;63025;55.472;38.432;2022-12-07T04:11:28;14.02;;;6.90;;
74551;SDS011;63025;55.472;38.432;2022-12-07T04:13:54;15.55;;;7.85;;
74551;SDS011;63025;55.472;38.432;2022-12-07T04:16:39;14.50;;;7.00;;
74551;SDS011;63025;55.472;38.432;2022-12-07T04:19:04;15.77;;;8.02;;
74551;SDS011;63025;55.472;38.432;2022-12-07T04:21:30;14.07;;;6.90;;
74551;SDS011;63025;55.472;38.432;2022-12-07T04:23:56;13.43;;;7.15;;
74551;SDS011;63025;55.472;38.432;2022-12-07T04:26:22;13.85;;;7.00;;
74551;SDS011;63025;55.472;38.432;2022-12-07T04:28:48;12.93;;;6.53;;
74551;SDS011;63025;55.472;38.432;2022-12-07T04:31:13;15.43;;;6.70;;
74551;SDS011;63025;55.472;38.432;2022-12-07T04:33:39;14.10;;;6.32;;
74551;SDS011;63025;55.472;38.432;2022-12-07T04:36:05;12.18;;;6.43;;
74551;SDS011;63025;55.472;38.432;2022-12-07T04:38:31;16.30;;;7.00;;
74551;SDS011;63025;55.472;38.432;2022-12-07T04:40:57;14.52;;;6.97;;
74551;SDS011;63025;55.472;38.432;2022-12-07T04:43:23;14.02;;;7.50;;
74551;SDS011;63025;55.472;38.432;2022-12-07T04:45:49;18.58;;;8.45;;
74551;SDS011;63025;55.472;38.432;2022-12-07T04:48:15;18.55;;;8.43;;
74551;SDS011;63025;55.472;38.432;2022-12-07T04:50:41;16.60;;;8.85;;
74551;SDS011;63025;55.472;38.432;2022-12-07T04:53:07;18.60;;;9.63;;
74551;SDS011;63025;55.472;38.432;2022-12-07T04:55:33;20.67;;;10.10;;
74551;SDS011;63025;55.472;38.432;2022-12-07T04:57:58;16.88;;;8.55;;
74551;SDS011;63025;55.472;38.432;2022-12-07T05:00:24;17.73;;;8.45;;
74551;SDS011;63025;55.472;38.432;2022-12-07T05:02:50;17.73;;;8.68;;
74551;SDS011;63025;55.472;38.432;2022-12-07T05:05:16;17.02;;;8.13;;
74551;SDS011;63025;55.472;38.432;2022-12-07T05:07:42;13.65;;;7.38;;
74551;SDS011;63025;55.472;38.432;2022-12-07T05:10:07;20.70;;;8.00;;
74551;SDS011;63025;55.472;38.432;2022-12-07T05:12:33;14.05;;;7.30;;
74551;SDS011;63025;55.472;38.432;2022-12-07T05:14:59;15.40;;;7.63;;
74551;SDS011;63025;55.472;38.432;2022-12-07T05:17:25;17.55;;;7.15;;
74551;SDS011;63025;55.472;38.432;2022-12-07T05:19:51;16.40;;;8.32;;
74551;SDS011;63025;55.472;38.432;2022-12-07T05:22:17;16.35;;;7.47;;
74551;SDS011;63025;55.472;38.432;2022-12-07T05:24:42;17.25;;;7.95;;
74551;SDS011;63025;55.472;38.432;2022-12-07T05:27:08;17.83;;;7.97;;
74551;SDS011;63025;55.472;38.432;2022-12-07T05:29:34;17.90;;;7.97;;
74551;SDS011;63025;55.472;38.432;2022-12-07T05:32:00;18.88;;;8.30;;
74551;SDS011;63025;55.472;38.432;2022-12-07T05:34:26;18.20;;;7.93;;
74551;SDS011;63025;55.472;38.432;2022-12-07T05:36:52;18.35;;;8.23;;
74551;SDS011;63025;55.472;38.432;2022-12-07T05:39:17;14.35;;;7.65;;
74551;SDS011;63025;55.472;38.432;2022-12-07T05:41:43;16.17;;;7.95;;
74551;SDS011;63025;55.472;38.432;2022-12-07T05:44:28;18.30;;;8.48;;
74551;SDS011;63025;55.472;38.432;2022-12-07T05:46:54;17.25;;;8.15;;
74551;SDS011;63025;55.472;38.432;2022-12-07T05:49:19;17.60;;;7.55;;
74551;SDS011;63025;55.472;38.432;2022-12-07T05:51:45;15.30;;;7.70;;
74551;SDS011;63025;55.472;38.432;2022-12-07T05:54:11;15.23;;;8.00;;
74551;SDS011;63025;55.472;38.432;2022-12-07T05:56:37;15.73;;;7.75;;
74551;SDS011;63025;55.472;38.432;2022-12-07T05:59:03;17.08;;;8.15;;
74551;SDS011;63025;55.472;38.432;2022-12-07T06:01:48;17.52;;;9.05;;
74551;SDS011;63025;55.472;38.432;2022-12-07T06:04:18;16.27;;;7.55;;
74551;SDS011;63025;55.472;38.432;2022-12-07T06:06:43;16.88;;;8.00;;
74551;SDS011;63025;55.472;38.432;2022-12-07T06:09:10;19.77;;;8.65;;
74551;SDS011;63025;55.472;38.432;2022-12-07T06:11:36;18.98;;;8.73;;
74551;SDS011;63025;55.472;38.432;2022-12-07T06:14:20;19.67;;;8.63;;
74551;SDS011;63025;55.472;38.432;2022-12-07T06:16:46;17.52;;;9.02;;
74551;SDS011;63025;55.472;38.432;2022-12-07T06:19:12;18.38;;;8.20;;
74551;SDS011;63025;55.472;38.432;2022-12-07T06:21:38;17.05;;;8.07;;
74551;SDS011;63025;55.472;38.432;2022-12-07T06:24:04;15.27;;;8.10;;
74551;SDS011;63025;55.472;38.432;2022-12-07T06:26:30;18.27;;;8.48;;
74551;SDS011;63025;55.472;38.432;2022-12-07T06:28:56;19.75;;;8.35;;
74551;SDS011;63025;55.472;38.432;2022-12-07T06:31:22;17.85;;;8.38;;
74551;SDS011;63025;55.472;38.432;2022-12-07T06:33:48;16.60;;;7.65;;
74551;SDS011;63025;55.472;38.432;2022-12-07T06:36:13;14.77;;;7.60;;
74551;SDS011;63025;55.472;38.432;2022-12-07T06:38:39;17.02;;;7.93;;
74551;SDS011;63025;55.472;38.432;2022-12-07T06:41:05;18.15;;;8.10;;
74551;SDS011;63025;55.472;38.432;2022-12-07T06:43:32;19.67;;;7.85;;
74551;SDS011;63025;55.472;38.432;2022-12-07T06:45:58;16.17;;;8.70;;
74551;SDS011;63025;55.472;38.432;2022-12-07T06:48:24;15.75;;;7.85;;
74551;SDS011;63025;55.472;38.432;2022-12-07T06:50:50;16.80;;;7.85;;
74551;SDS011;63025;55.472;38.432;2022-12-07T06:53:16;15.85;;;7.53;;
74551;SDS011;63025;55.472;38.432;2022-12-07T06:55:41;13.45;;;6.25;;
74551;SDS011;63025;55.472;38.432;2022-12-07T06:58:07;14.13;;;7.15;;
74551;SDS011;63025;55.472;38.432;2022-12-07T07:00:33;15.85;;;6.93;;
74551;SDS011;63025;55.472;38.432;2022-12-07T07:03:00;14.45;;;6.57;;
74551;SDS011;63025;55.472;38.432;2022-12-07T07:05:26;19.85;;;7.63;;
74551;SDS011;63025;55.472;38.432;2022-12-07T07:07:52;17.70;;;7.30;;
74551;SDS011;63025;55.472;38.432;2022-12-07T07:10:18;12.73;;;6.57;;
74551;SDS011;63025;55.472;38.432;2022-12-07T07:12:44;16.83;;;6.80;;
74551;SDS011;63025;55.472;38.432;2022-12-07T07:15:10;9.88;;;5.32;;
74551;SDS011;63025;55.472;38.432;2022-12-07T07:17:37;14.38;;;6.15;;
74551;SDS011;63025;55.472;38.432;2022-12-07T07:20:03;13.48;;;6.47;;
74551;SDS011;63025;55.472;38.432;2022-12-07T07:22:29;13.88;;;6.60;;
74551;SDS011;63025;55.472;38.432;2022-12-07T07:24:55;14.73;;;5.80;;
74551;SDS011;63025;55.472;38.432;2022-12-07T07:27:21;12.55;;;6.22;;
74551;SDS011;63025;55.472;38.432;2022-12-07T07:29:47;13.80;;;6.07;;
74551;SDS011;63025;55.472;38.432;2022-12-07T07:32:13;16.33;;;6.40;;
74551;SDS011;63025;55.472;38.432;2022-12-07T07:34:39;15.93;;;6.70;;
74551;SDS011;63025;55.472;38.432;2022-12-07T07:37:05;14.45;;;7.35;;
74551;SDS011;63025;55.472;38.432;2022-12-07T07:39:31;11.43;;;6.85;;
74551;SDS011;63025;55.472;38.432;2022-12-07T07:41:59;20.33;;;7.45;;
74551;SDS011;63025;55.472;38.432;2022-12-07T07:44:26;11.90;;;6.72;;
74551;SDS011;63025;55.472;38.432;2022-12-07T07:46:52;17.83;;;7.22;;
74551;SDS011;63025;55.472;38.432;2022-12-07T07:49:18;20.42;;;6.82;;
74551;SDS011;63025;55.472;38.432;2022-12-07T07:51:44;14.90;;;7.57;;
74551;SDS011;63025;55.472;38.432;2022-12-07T07:54:09;15.40;;;6.75;;
74551;SDS011;63025;55.472;38.432;2022-12-07T07:56:35;14.45;;;6.68;;
74551;SDS011;63025;55.472;38.432;2022-12-07T07:59:01;12.93;;;6.95;;
74551;SDS011;63025;55.472;38.432;2022-12-07T08:01:27;14.35;;;6.90;;
74551;SDS011;63025;55.472;38.432;2022-12-07T08:03:53;13.43;;;6.65;;
74551;SDS011;63025;55.472;38.432;2022-12-07T08:06:18;10.95;;;5.57;;
74551;SDS011;63025;55.472;38.432;2022-12-07T08:08:44;13.32;;;6.88;;
74551;SDS011;63025;55.472;38.432;2022-12-07T08:11:10;14.63;;;6.55;;
74551;SDS011;63025;55.472;38.432;2022-12-07T08:13:36;13.82;;;6.88;;
74551;SDS011;63025;55.472;38.432;2022-12-07T08:16:03;16.30;;;8.00;;
74551;SDS011;63025;55.472;38.432;2022-12-07T08:18:34;15.43;;;7.43;;
74551;SDS011;63025;55.472;38.432;2022-12-07T08:21:02;14.30;;;7.15;;
74551;SDS011;63025;55.472;38.432;2022-12-07T08:23:28;13.65;;;6.72;;
74551;SDS011;63025;55.472;38.432;2022-12-07T08:25:55;12.13;;;6.38;;
74551;SDS011;63025;55.472;38.432;2022-12-07T08:28:26;19.05;;;6.63;;
74551;SDS011;63025;55.472;38.432;2022-12-07T08:30:51;13.30;;;6.65;;
74551;SDS011;63025;55.472;38.432;2022-12-07T08:33:17;15.30;;;6.60;;
74551;SDS011;63025;55.472;38.432;2022-12-07T08:35:43;13.48;;;6.68;;
74551;SDS011;63025;55.472;38.432;2022-12-07T08:38:09;13.10;;;6.72;;
74551;SDS011;63025;55.472;38.432;2022-12-07T08:40:34;12.32;;;6.45;;
74551;SDS011;63025;55.472;38.432;2022-12-07T08:43:00;12.70;;;6.22;;
74551;SDS011;63025;55.472;38.432;2022-12-07T08:45:26;12.88;;;6.40;;
74551;SDS011;63025;55.472;38.432;2022-12-07T08:48:03;11.30;;;5.97;;
74551;SDS011;63025;55.472;38.432;2022-12-07T08:50:33;12.18;;;5.80;;
74551;SDS011;63025;55.472;38.432;2022-12-07T08:52:59;12.48;;;5.70;;
74551;SDS011;63025;55.472;38.432;2022-12-07T08:55:26;12.35;;;5.75;;
74551;SDS011;63025;55.472;38.432;2022-12-07T08:57:54;11.43;;;5.55;;
74551;SDS011;63025;55.472;38.432;2022-12-07T09:00:20;12.05;;;5.18;;
74551;SDS011;63025;55.472;38.432;2022-12-07T09:02:46;12.20;;;5.72;;
74551;SDS011;63025;55.472;38.432;2022-12-07T09:05:12;10.50;;;6.18;;
74551;SDS011;63025;55.472;38.432;2022-12-07T09:07:40;11.30;;;5.63;;
74551;SDS011;63025;55.472;38.432;2022-12-07T09:10:07;15.73;;;6.28;;
74551;SDS011;63025;55.472;38.432;2022-12-07T09:12:33;12.27;;;5.68;;
74551;SDS011;63025;55.472;38.432;2022-12-07T09:14:59;12.05;;;5.60;;
74551;SDS011;63025;55.472;38.432;2022-12-07T09:17:26;10.98;;;5.25;;
74551;SDS011;63025;55.472;38.432;2022-12-07T09:19:52;10.77;;;5.35;;
74551;SDS011;63025;55.472;38.432;2022-12-07T09:22:17;12.48;;;6.03;;
74551;SDS011;63025;55.472;38.432;2022-12-07T09:24:43;10.25;;;5.00;;
74551;SDS011;63025;55.472;38.432;2022-12-07T09:27:11;10.35;;;5.88;;
74551;SDS011;63025;55.472;38.432;2022-12-07T09:29:37;15.63;;;5.85;;
74551;SDS011;63025;55.472;38.432;2022-12-07T09:32:03;9.77;;;5.47;;
74551;SDS011;63025;55.472;38.432;2022-12-07T09:34:32;11.27;;;6.05;;
74551;SDS011;63025;55.472;38.432;2022-12-07T09:36:58;15.98;;;5.45;;
74551;SDS011;63025;55.472;38.432;2022-12-07T09:39:26;10.68;;;5.45;;
74551;SDS011;63025;55.472;38.432;2022-12-07T09:41:52;13.10;;;5.13;;
74551;SDS011;63025;55.472;38.432;2022-12-07T09:44:20;14.70;;;5.55;;
74551;SDS011;63025;55.472;38.432;2022-12-07T09:46:49;11.25;;;5.55;;
74551;SDS011;63025;55.472;38.432;2022-12-07T09:49:20;11.68;;;5.80;;
74551;SDS011;63025;55.472;38.432;2022-12-07T09:52:34;9.40;;;5.07;;
74551;SDS011;63025;55.472;38.432;2022-12-07T09:54:42;10.55;;;4.95;;
74551;SDS011;63025;55.472;38.432;2022-12-07T09:57:11;10.63;;;5.40;;
74551;SDS011;63025;55.472;38.432;2022-12-07T09:59:38;10.77;;;5.22;;
74551;SDS011;63025;55.472;38.432;2022-12-07T10:04:50;10.55;;;5.28;;
74551;SDS011;63025;55.472;38.432;2022-12-07T10:07:16;10.77;;;5.13;;
74551;SDS011;63025;55.472;38.432;2022-12-07T10:09:41;10.45;;;5.10;;
74551;SDS011;63025;55.472;38.432;2022-12-07T10:12:09;11.02;;;5.95;;
74551;SDS011;63025;55.472;38.432;2022-12-07T10:14:51;9.93;;;5.10;;
74551;SDS011;63025;55.472;38.432;2022-12-07T10:17:32;10.73;;;4.88;;
74551;SDS011;63025;55.472;38.432;2022-12-07T10:23:42;9.75;;;4.85;;
74551;SDS011;63025;55.472;38.432;2022-12-07T10:25:40;10.45;;;5.70;;
74551;SDS011;63025;55.472;38.432;2022-12-07T10:30:34;11.15;;;5.80;;
74551;SDS011;63025;55.472;38.432;2022-12-07T10:33:32;11.50;;;5.85;;
74551;SDS011;63025;55.472;38.432;2022-12-07T10:38:51;11.70;;;5.47;;
74551;SDS011;63025;55.472;38.432;2022-12-07T10:41:18;11.57;;;5.90;;
74551;SDS011;63025;55.472;38.432;2022-12-07T10:43:49;12.43;;;5.47;;
74551;SDS011;63025;55.472;38.432;2022-12-07T10:46:34;11.43;;;6.40;;
74551;SDS011;63025;55.472;38.432;2022-12-07T10:57:10;11.88;;;6.10;;
74551;SDS011;63025;55.472;38.432;2022-12-07T11:05:35;11.32;;;6.57;;
74551;SDS011;63025;55.472;38.432;2022-12-07T11:08:50;11.80;;;6.13;;
74551;SDS011;63025;55.472;38.432;2022-12-07T11:13:51;13.10;;;6.57;;
74551;SDS011;63025;55.472;38.432;2022-12-07T11:22:04;14.23;;;6.95;;
74551;SDS011;63025;55.472;38.432;2022-12-07T11:27:37;13.60;;;6.82;;
74551;SDS011;63025;55.472;38.432;2022-12-07T11:35:41;14.13;;;5.85;;
74551;SDS011;63025;55.472;38.432;2022-12-07T11:38:18;13.60;;;7.45;;
74551;SDS011;63025;55.472;38.432;2022-12-07T11:40:49;15.23;;;7.47;;
74551;SDS011;63025;55.472;38.432;2022-12-07T11:43:26;14.40;;;7.50;;
74551;SDS011;63025;55.472;38.432;2022-12-07T11:45:58;14.60;;;7.38;;
74551;SDS011;63025;55.472;38.432;2022-12-07T11:51:03;12.57;;;7.10;;
74551;SDS011;63025;55.472;38.432;2022-12-07T11:53:36;21.08;;;7.90;;
74551;SDS011;63025;55.472;38.432;2022-12-07T11:56:09;15.63;;;7.88;;
74551;SDS011;63025;55.472;38.432;2022-12-07T12:06:37;13.50;;;7.25;;
74551;SDS011;63025;55.472;38.432;2022-12-07T12:09:14;15.13;;;6.68;;
74551;SDS011;63025;55.472;38.432;2022-12-07T12:22:55;14.60;;;6.83;;
74551;SDS011;63025;55.472;38.432;2022-12-07T12:25:31;14.70;;;7.47;;
74551;SDS011;63025;55.472;38.432;2022-12-07T12:28:04;12.95;;;6.80;;
74551;SDS011;63025;55.472;38.432;2022-12-07T12:30:34;16.23;;;7.57;;
74551;SDS011;63025;55.472;38.432;2022-12-07T12:33:22;15.73;;;7.50;;
74551;SDS011;63025;55.472;38.432;2022-12-07T12:44:03;13.68;;;6.63;;
74551;SDS011;63025;55.472;38.432;2022-12-07T12:49:32;12.63;;;6.20;;
74551;SDS011;63025;55.472;38.432;2022-12-07T12:54:38;15.60;;;7.30;;
74551;SDS011;63025;55.472;38.432;2022-12-07T12:57:30;14.23;;;7.47;;
74551;SDS011;63025;55.472;38.432;2022-12-07T12:59:57;16.25;;;7.53;;
74551;SDS011;63025;55.472;38.432;2022-12-07T13:02:30;14.65;;;7.65;;
74551;SDS011;63025;55.472;38.432;2022-12-07T13:15:48;13.63;;;6.32;;
74551;SDS011;63025;55.472;38.432;2022-12-07T13:28:47;13.05;;;6.18;;
74551;SDS011;63025;55.472;38.432;2022-12-07T13:33:59;13.30;;;7.25;;
74551;SDS011;63025;55.472;38.432;2022-12-07T13:36:26;12.00;;;6.50;;
74551;SDS011;63025;55.472;38.432;2022-12-07T13:38:58;17.17;;;7.57;;
74551;SDS011;63025;55.472;38.432;2022-12-07T13:41:25;14.20;;;6.50;;
74551;SDS011;63025;55.472;38.432;2022-12-07T13:43:58;11.90;;;6.15;;
74551;SDS011;63025;55.472;38.432;2022-12-07T13:46:26;15.18;;;6.97;;
74551;SDS011;63025;55.472;38.432;2022-12-07T13:49:15;15.38;;;6.85;;
74551;SDS011;63025;55.472;38.432;2022-12-07T13:51:47;12.77;;;5.97;;
74551;SDS011;63025;55.472;38.432;2022-12-07T13:54:13;13.32;;;6.45;;
74551;SDS011;63025;55.472;38.432;2022-12-07T13:56:40;13.15;;;6.25;;
74551;SDS011;63025;55.472;38.432;2022-12-07T13:59:13;14.25;;;7.40;;
74551;SDS011;63025;55.472;38.432;2022-12-07T14:01:44;16.77;;;7.38;;
74551;SDS011;63025;55.472;38.432;2022-12-07T14:04:31;15.27;;;6.85;;
74551;SDS011;63025;55.472;38.432;2022-12-07T14:06:58;17.13;;;7.43;;
74551;SDS011;63025;55.472;38.432;2022-12-07T14:09:25;19.65;;;7.95;;
74551;SDS011;63025;55.472;38.432;2022-12-07T14:11:53;15.50;;;6.88;;
74551;SDS011;63025;55.472;38.432;2022-12-07T14:14:26;20.52;;;9.27;;
74551;SDS011;63025;55.472;38.432;2022-12-07T14:17:16;16.40;;;7.78;;
74551;SDS011;63025;55.472;38.432;2022-12-07T14:30:16;15.88;;;7.05;;
74551;SDS011;63025;55.472;38.432;2022-12-07T14:32:43;17.02;;;7.90;;
74551;SDS011;63025;55.472;38.432;2022-12-07T14:35:15;18.08;;;6.43;;
74551;SDS011;63025;55.472;38.432;2022-12-07T14:37:43;16.17;;;6.75;;
74551;SDS011;63025;55.472;38.432;2022-12-07T14:40:14;15.43;;;7.60;;
74551;SDS011;63025;55.472;38.432;2022-12-07T14:42:43;15.30;;;6.43;;
74551;SDS011;63025;55.472;38.432;2022-12-07T14:45:16;15.60;;;7.20;;
74551;SDS011;63025;55.472;38.432;2022-12-07T14:47:44;19.23;;;8.02;;
74551;SDS011;63025;55.472;38.432;2022-12-07T14:50:11;16.45;;;7.50;;
74551;SDS011;63025;55.472;38.432;2022-12-07T14:52:39;16.70;;;8.05;;
74551;SDS011;63025;55.472;38.432;2022-12-07T14:55:12;15.77;;;7.55;;
74551;SDS011;63025;55.472;38.432;2022-12-07T14:57:41;14.10;;;6.90;;
74551;SDS011;63025;55.472;38.432;2022-12-07T15:00:08;15.10;;;6.72;;
74551;SDS011;63025;55.472;38.432;2022-12-07T15:02:38;15.35;;;6.97;;
74551;SDS011;63025;55.472;38.432;2022-12-07T15:05:04;16.75;;;7.10;;
74551;SDS011;63025;55.472;38.432;2022-12-07T15:07:30;16.13;;;7.35;;
74551;SDS011;63025;55.472;38.432;2022-12-07T15:09:56;16.30;;;7.60;;
74551;SDS011;63025;55.472;38.432;2022-12-07T15:12:22;16.67;;;7.78;;
74551;SDS011;63025;55.472;38.432;2022-12-07T15:14:48;18.13;;;6.88;;
74551;SDS011;63025;55.472;38.432;2022-12-07T15:17:14;15.32;;;7.18;;
74551;SDS011;63025;55.472;38.432;2022-12-07T15:19:40;17.08;;;7.30;;
74551;SDS011;63025;55.472;38.432;2022-12-07T15:22:07;15.00;;;7.28;;
74551;SDS011;63025;55.472;38.432;2022-12-07T15:24:33;16.17;;;7.82;;
74551;SDS011;63025;55.472;38.432;2022-12-07T15:26:59;14.00;;;6.80;;
74551;SDS011;63025;55.472;38.432;2022-12-07T15:29:25;13.52;;;6.93;;
74551;SDS011;63025;55.472;38.432;2022-12-07T15:31:53;15.15;;;7.05;;
74551;SDS011;63025;55.472;38.432;2022-12-07T15:34:19;15.73;;;7.05;;
74551;SDS011;63025;55.472;38.432;2022-12-07T15:36:45;20.90;;;8.88;;
74551;SDS011;63025;55.472;38.432;2022-12-07T15:39:11;19.48;;;8.85;;
74551;SDS011;63025;55.472;38.432;2022-12-07T15:41:37;21.63;;;8.80;;
74551;SDS011;63025;55.472;38.432;2022-12-07T15:44:03;14.68;;;7.40;;
74551;SDS011;63025;55.472;38.432;2022-12-07T15:46:47;16.60;;;6.78;;
74551;SDS011;63025;55.472;38.432;2022-12-07T15:49:14;16.35;;;7.47;;
74551;SDS011;63025;55.472;38.432;2022-12-07T15:51:43;16.92;;;7.03;;
74551;SDS011;63025;55.472;38.432;2022-12-07T15:54:11;13.38;;;6.43;;
74551;SDS011;63025;55.472;38.432;2022-12-07T15:56:48;13.68;;;6.70;;
74551;SDS011;63025;55.472;38.432;2022-12-07T15:59:14;14.52;;;6.20;;
74551;SDS011;63025;55.472;38.432;2022-12-07T16:01:40;14.00;;;6.20;;
74551;SDS011;63025;55.472;38.432;2022-12-07T16:04:06;16.08;;;6.10;;
74551;SDS011;63025;55.472;38.432;2022-12-07T16:06:32;16.10;;;7.07;;
74551;SDS011;63025;55.472;38.432;2022-12-07T16:08:58;15.45;;;6.70;;
74551;SDS011;63025;55.472;38.432;2022-12-07T16:11:24;17.35;;;8.02;;
74551;SDS011;63025;55.472;38.432;2022-12-07T16:13:49;15.93;;;7.50;;
74551;SDS011;63025;55.472;38.432;2022-12-07T16:16:16;13.30;;;6.50;;
74551;SDS011;63025;55.472;38.432;2022-12-07T16:18:44;17.33;;;6.72;;
74551;SDS011;63025;55.472;38.432;2022-12-07T16:21:12;16.27;;;6.60;;
74551;SDS011;63025;55.472;38.432;2022-12-07T16:23:38;15.52;;;7.07;;
74551;SDS011;63025;55.472;38.432;2022-12-07T16:26:08;15.43;;;6.95;;
74551;SDS011;63025;55.472;38.432;2022-12-07T16:28:38;13.52;;;6.65;;
74551;SDS011;63025;55.472;38.432;2022-12-07T16:31:04;17.60;;;7.65;;
74551;SDS011;63025;55.472;38.432;2022-12-07T16:33:33;13.15;;;6.53;;
74551;SDS011;63025;55.472;38.432;2022-12-07T16:36:00;16.38;;;7.68;;
74551;SDS011;63025;55.472;38.432;2022-12-07T16:38:28;18.52;;;7.43;;
74551;SDS011;63025;55.472;38.432;2022-12-07T16:40:54;13.23;;;5.80;;
74551;SDS011;63025;55.472;38.432;2022-12-07T16:43:20;11.60;;;5.93;;
74551;SDS011;63025;55.472;38.432;2022-12-07T16:45:46;17.23;;;7.35;;
74551;SDS011;63025;55.472;38.432;2022-12-07T16:48:13;18.40;;;8.55;;
74551;SDS011;63025;55.472;38.432;2022-12-07T16:50:40;14.30;;;7.10;;
74551;SDS011;63025;55.472;38.432;2022-12-07T16:53:07;15.60;;;7.40;;